Time;durP1;ratioP1;P1;durP2;ratioP2;P2;SDS_P1;SDS_P2;PMS_P1;PMS_P2;Temp;Humidity;BMP_temperature;BMP_pressure;BME280_temperature;BME280_humidity;BME280_pressure;Samples;Min_cycle;Max_cycle;Signal;HPM_P1;HPM_P2
2023/01/23 07:06:05;;;;;;;5.80;3.90;;;;;;;;;;12436739;22;7854295;-86
2023/01/23 07:17:14;;;;;;;6.68;5.07;;;;;;;;;;12719643;23;20014;-86
2023/01/23 07:23:14;;;;;;;7.40;5.50;;;;;;;;;;12717539;23;20010;-86
2023/01/23 08:07:44;;;;;;;5.18;4.20;;;;;;;;;;12692433;23;20014;-84
2023/01/23 08:12:45;;;;;;;8.55;5.80;;;;;;;;;;12677781;23;20024;-83
2023/01/23 08:17:46;;;;;;;;;;;;;;;;;;12727237;23;20007;-82
2023/01/23 08:22:48;;;;;;;;;;;;;;;;;;12753631;23;19915;-83
2023/01/23 08:27:49;;;;;;;10.73;7.15;;;;;;;;;;12736868;23;19896;-82
2023/01/23 08:32:50;;;;;;;8.40;6.35;;;;;;;;;;12767546;23;20002;-81
2023/01/23 08:37:51;;;;;;;8.35;6.88;;;;;;;;;;12791384;23;20041;-83
2023/01/23 08:42:53;;;;;;;9.27;6.85;;;;;;;;;;12729787;23;20076;-83
2023/01/23 08:48:05;;;;;;;10.02;7.45;;;;;;;;;;12730114;23;20386;-84
2023/01/23 08:53:06;;;;;;;11.93;9.30;;;;;;;;;;12751603;23;20005;-84
2023/01/23 08:58:08;;;;;;;15.73;11.27;;;;;;;;;;12727956;23;20070;-85
2023/01/23 09:03:10;;;;;;;10.45;7.65;;;;;;;;;;12727666;23;20021;-84
2023/01/23 09:08:11;;;;;;;10.85;8.63;;;;;;;;;;12726309;23;20005;-84
2023/01/23 09:13:12;;;;;;;13.63;10.75;;;;;;;;;;12724990;23;20010;-85
2023/01/23 09:18:13;;;;;;;11.18;8.38;;;;;;;;;;12749000;23;20005;-84
2023/01/23 09:23:14;;;;;;;12.23;8.98;;;;;;;;;;12740774;23;20033;-85
2023/01/23 09:28:15;;;;;;;13.40;10.10;;;;;;;;;;12727140;23;20009;-84
2023/01/23 09:33:16;;;;;;;10.98;8.40;;;;;;;;;;12725380;23;20342;-85
2023/01/23 09:38:22;;;;;;;8.45;6.63;;;;;;;;;;12726556;23;20036;-85
2023/01/23 09:43:32;;;;;;;14.15;7.22;;;;;;;;;;12727173;23;20453;-84
2023/01/23 09:48:39;;;;;;;10.50;6.87;;;;;;;;;;12727325;23;20001;-84
2023/01/23 09:53:41;;;;;;;9.93;6.68;;;;;;;;;;12779170;23;20010;-83
2023/01/23 09:58:50;;;;;;;9.02;5.90;;;;;;;;;;12760197;23;20092;-84
2023/01/23 10:03:51;;;;;;;30.38;18.58;;;;;;;;;;12725110;23;20022;-82
2023/01/23 10:08:52;;;;;;;;;;;;;;;;;;12751627;23;20017;-82
2023/01/23 10:14:11;;;;;;;10.13;6.07;;;;;;;;;;12726697;23;19923;-84
2023/01/23 10:19:12;;;;;;;10.90;5.68;;;;;;;;;;12724424;23;20006;-83
2023/01/23 10:24:16;;;;;;;12.18;7.22;;;;;;;;;;12727766;23;20005;-83
2023/01/23 10:29:30;;;;;;;6.68;4.90;;;;;;;;;;12724648;23;20002;-82
2023/01/23 10:34:49;;;;;;;9.35;6.00;;;;;;;;;;12723915;23;20005;-82
2023/01/23 10:39:54;;;;;;;10.13;5.80;;;;;;;;;;12729633;23;20068;-82
2023/01/23 10:44:55;;;;;;;9.25;5.90;;;;;;;;;;12723969;23;20013;-83
2023/01/23 10:49:56;;;;;;;8.20;5.03;;;;;;;;;;12753402;23;20032;-84
2023/01/23 10:54:59;;;;;;;7.85;4.75;;;;;;;;;;12761977;23;20012;-81
2023/01/23 11:00:03;;;;;;;5.60;4.63;;;;;;;;;;12763601;23;20056;-80
2023/01/23 11:05:24;;;;;;;9.30;5.72;;;;;;;;;;12760438;23;20005;-81
2023/01/23 11:10:25;;;;;;;6.93;4.97;;;;;;;;;;12748377;23;20087;-83
2023/01/23 11:15:28;;;;;;;9.48;6.30;;;;;;;;;;12754911;23;20004;-84
2023/01/23 11:20:54;;;;;;;6.13;5.20;;;;;;;;;;12732120;23;20053;-84
2023/01/23 11:25:55;;;;;;;7.88;6.22;;;;;;;;;;12726769;23;20002;-83
2023/01/23 11:30:59;;;;;;;7.55;5.68;;;;;;;;;;12727665;23;20006;-84
2023/01/23 11:36:06;;;;;;;9.45;7.45;;;;;;;;;;12729376;23;20390;-83
2023/01/23 11:41:17;;;;;;;9.13;4.80;;;;;;;;;;12728884;23;20005;-83
2023/01/23 11:46:28;;;;;;;8.82;5.63;;;;;;;;;;12764388;23;20001;-84
2023/01/23 11:51:37;;;;;;;8.50;5.05;;;;;;;;;;12761364;23;20012;-84
2023/01/23 11:56:44;;;;;;;8.07;6.30;;;;;;;;;;12740787;23;20013;-84
2023/01/23 12:01:53;;;;;;;7.80;5.97;;;;;;;;;;12739352;23;20005;-85
2023/01/23 12:07:13;;;;;;;9.07;6.03;;;;;;;;;;12747185;23;20012;-85
2023/01/23 12:12:49;;;;;;;10.98;6.57;;;;;;;;;;12743974;23;20124;-85
2023/01/23 12:17:59;;;;;;;8.95;6.32;;;;;;;;;;12693731;23;20005;-85
2023/01/23 12:23:19;;;;;;;11.77;6.28;;;;;;;;;;12744396;23;20020;-85
2023/01/23 12:28:20;;;;;;;7.85;5.93;;;;;;;;;;12736633;23;20004;-84
2023/01/23 12:33:21;;;;;;;10.02;7.20;;;;;;;;;;12730740;23;20010;-84
2023/01/23 12:38:25;;;;;;;13.40;6.95;;;;;;;;;;12747239;23;20022;-83
2023/01/23 12:43:57;;;;;;;10.48;6.82;;;;;;;;;;12774337;23;20010;-82
2023/01/23 12:49:02;;;;;;;13.35;10.20;;;;;;;;;;12619630;23;20006;-82
2023/01/23 12:54:06;;;;;;;8.10;5.95;;;;;;;;;;12711333;23;20017;-81
2023/01/23 12:59:07;;;;;;;10.30;7.32;;;;;;;;;;12712578;23;20002;-83
2023/01/23 13:04:11;;;;;;;6.93;5.32;;;;;;;;;;12710031;23;20163;-82
2023/01/23 13:09:41;;;;;;;8.82;7.43;;;;;;;;;;12709278;23;20002;-83
2023/01/23 13:14:43;;;;;;;11.40;6.20;;;;;;;;;;12689076;23;20027;-82
2023/01/23 13:25:17;;;;;;;9.25;7.35;;;;;;;;;;12725464;23;20030;-82
2023/01/23 13:30:25;;;;;;;11.32;8.10;;;;;;;;;;12731890;23;20049;-83
2023/01/23 13:35:38;;;;;;;8.48;6.60;;;;;;;;;;12699195;23;20014;-81
2023/01/23 13:41:03;;;;;;;10.77;8.43;;;;;;;;;;12691284;23;20010;-81
2023/01/23 13:46:00;;;;;;;11.93;9.10;;;;;;;;;;12696257;23;20006;-82
2023/01/23 13:51:01;;;;;;;;;;;;;;;;;;12695449;23;20016;-82
2023/01/23 14:06:45;;;;;;;7.60;5.10;;;;;;;;;;12699428;23;20354;-81
2023/01/23 14:11:48;;;;;;;7.70;5.68;;;;;;;;;;12696657;23;20009;-82
2023/01/23 14:16:49;;;;;;;8.68;6.28;;;;;;;;;;12709284;23;20013;-82
2023/01/23 14:21:53;;;;;;;7.30;5.93;;;;;;;;;;12727363;23;20058;-83
2023/01/23 14:26:59;;;;;;;8.77;6.00;;;;;;;;;;12725169;23;20001;-82
2023/01/23 14:32:00;;;;;;;5.57;4.82;;;;;;;;;;12709734;23;20010;-83
2023/01/23 14:37:10;;;;;;;11.60;8.60;;;;;;;;;;12697988;23;20069;-82
2023/01/23 14:42:28;;;;;;;11.18;8.82;;;;;;;;;;12697027;23;20693;-80
2023/01/23 14:47:40;;;;;;;10.77;7.93;;;;;;;;;;12695562;23;20025;-81
2023/01/23 14:52:42;;;;;;;10.73;8.77;;;;;;;;;;12700550;23;20350;-81
2023/01/23 14:57:43;;;;;;;;;;;;;;;;;;12704938;23;20010;-81
2023/01/23 15:02:45;;;;;;;11.00;6.03;;;;;;;;;;12718209;23;19916;-81
2023/01/23 15:07:48;;;;;;;10.13;7.65;;;;;;;;;;12711860;23;20036;-81
2023/01/23 15:12:54;;;;;;;6.75;5.50;;;;;;;;;;12714568;23;19998;-81
2023/01/23 15:17:56;;;;;;;12.18;5.85;;;;;;;;;;12706051;23;20057;-82
2023/01/23 15:22:58;;;;;;;15.18;8.00;;;;;;;;;;12712952;23;20013;-82
2023/01/23 15:27:59;;;;;;;9.65;6.75;;;;;;;;;;12714918;23;20010;-82
2023/01/23 15:33:05;;;;;;;9.98;7.80;;;;;;;;;;12712041;23;20006;-83
2023/01/23 15:38:15;;;;;;;10.25;6.50;;;;;;;;;;12699578;23;20010;-82
2023/01/23 15:43:17;;;;;;;8.52;6.70;;;;;;;;;;12695757;23;20526;-83
2023/01/23 15:48:18;;;;;;;9.73;7.60;;;;;;;;;;12692665;23;20033;-82
2023/01/23 15:53:19;;;;;;;11.82;9.25;;;;;;;;;;12699883;23;20006;-82
2023/01/23 15:58:20;;;;;;;9.43;7.10;;;;;;;;;;12702432;23;20014;-83
2023/01/23 16:03:22;;;;;;;9.60;6.75;;;;;;;;;;12704057;23;20028;-82
2023/01/23 16:08:24;;;;;;;;;;;;;;;;;;12706851;23;20006;-81
2023/01/23 16:13:25;;;;;;;7.45;5.65;;;;;;;;;;12689336;23;19901;-83
2023/01/23 16:18:26;;;;;;;13.27;10.23;;;;;;;;;;12685090;23;20006;-81
2023/01/23 16:23:27;;;;;;;10.52;7.25;;;;;;;;;;12699972;23;20028;-81
2023/01/23 16:28:28;;;;;;;10.85;7.03;;;;;;;;;;12711290;23;19991;-82
2023/01/23 16:33:29;;;;;;;9.05;6.90;;;;;;;;;;12723834;23;20006;-81
2023/01/23 16:38:31;;;;;;;9.35;6.40;;;;;;;;;;12724549;23;20021;-80
2023/01/23 16:43:32;;;;;;;;;;;;;;;;;;12707070;23;20018;-80
2023/01/23 16:48:33;;;;;;;13.77;10.57;;;;;;;;;;12697202;23;19901;-79
2023/01/23 16:53:36;;;;;;;14.32;11.05;;;;;;;;;;12686583;23;20033;-79
2023/01/23 16:58:38;;;;;;;7.90;5.85;;;;;;;;;;12693863;23;20013;-80
2023/01/23 17:03:40;;;;;;;12.10;9.20;;;;;;;;;;12689370;23;20010;-80
2023/01/23 17:08:41;;;;;;;9.43;6.80;;;;;;;;;;12691152;23;20402;-79
2023/01/23 17:13:42;;;;;;;12.02;9.05;;;;;;;;;;12684887;23;20041;-81
2023/01/23 17:18:43;;;;;;;7.32;5.07;;;;;;;;;;12693828;23;20107;-80
2023/01/23 17:23:44;;;;;;;12.35;8.85;;;;;;;;;;12702198;23;20069;-82
2023/01/23 17:28:46;;;;;;;14.13;11.27;;;;;;;;;;12690515;23;20006;-82
2023/01/23 17:33:47;;;;;;;8.25;6.22;;;;;;;;;;12690732;23;20101;-82
2023/01/23 17:39:07;;;;;;;11.57;9.32;;;;;;;;;;12694080;23;20080;-82
2023/01/23 17:44:10;;;;;;;9.32;7.35;;;;;;;;;;12704789;23;20016;-83
2023/01/23 17:49:38;;;;;;;11.70;9.05;;;;;;;;;;12700357;23;20002;-83
2023/01/23 17:54:43;;;;;;;8.60;6.63;;;;;;;;;;12703284;23;20002;-83
2023/01/23 17:59:44;;;;;;;9.52;7.45;;;;;;;;;;12672713;23;20014;-82
2023/01/23 18:04:45;;;;;;;;;;;;;;;;;;12696545;23;20020;-81
2023/01/23 18:09:46;;;;;;;9.18;7.03;;;;;;;;;;12714741;23;19889;-81
2023/01/23 18:14:54;;;;;;;11.02;8.50;;;;;;;;;;12729740;23;20037;-82
2023/01/23 18:19:55;;;;;;;10.20;8.30;;;;;;;;;;12732085;23;20008;-83
2023/01/23 18:24:56;;;;;;;7.55;5.78;;;;;;;;;;12721059;23;20097;-81
2023/01/23 18:30:13;;;;;;;8.18;6.50;;;;;;;;;;12729869;23;20006;-83
2023/01/23 18:35:30;;;;;;;7.85;5.80;;;;;;;;;;12713911;23;20090;-78
2023/01/23 18:40:31;;;;;;;8.55;7.65;;;;;;;;;;12740819;23;20029;-78
2023/01/23 18:45:32;;;;;;;7.28;5.95;;;;;;;;;;12734122;23;20021;-78
2023/01/23 18:50:33;;;;;;;8.13;6.32;;;;;;;;;;12686313;23;20058;-77
2023/01/23 18:55:37;;;;;;;7.45;6.30;;;;;;;;;;12702049;23;20054;-77
2023/01/23 19:00:52;;;;;;;7.78;6.60;;;;;;;;;;12707294;23;20493;-77
2023/01/23 19:05:53;;;;;;;8.13;7.07;;;;;;;;;;12701521;23;19998;-77
2023/01/23 19:11:05;;;;;;;7.22;5.45;;;;;;;;;;12701929;23;20002;-78
2023/01/23 19:16:28;;;;;;;9.90;6.55;;;;;;;;;;12677870;23;20006;-77
2023/01/23 19:21:29;;;;;;;9.52;8.02;;;;;;;;;;12700758;23;20094;-77
2023/01/23 19:26:32;;;;;;;8.60;7.22;;;;;;;;;;12702575;23;20513;-77
2023/01/23 19:31:34;;;;;;;9.35;7.32;;;;;;;;;;12703932;23;20017;-77
2023/01/23 19:36:36;;;;;;;7.82;6.32;;;;;;;;;;12681490;23;20379;-78
2023/01/23 19:41:37;;;;;;;11.90;9.93;;;;;;;;;;12702286;23;20045;-78
2023/01/23 19:46:38;;;;;;;8.73;7.22;;;;;;;;;;12701753;23;20002;-78
2023/01/23 19:51:39;;;;;;;13.50;9.35;;;;;;;;;;12701243;23;20048;-78
2023/01/23 19:56:41;;;;;;;9.73;7.35;;;;;;;;;;12702711;23;20032;-78
2023/01/23 20:01:47;;;;;;;9.75;7.38;;;;;;;;;;12711245;23;19998;-78
2023/01/23 20:06:50;;;;;;;13.88;11.05;;;;;;;;;;12688198;23;20002;-78
2023/01/23 20:11:51;;;;;;;7.68;6.20;;;;;;;;;;12685277;23;20387;-77
2023/01/23 20:16:52;;;;;;;10.93;9.00;;;;;;;;;;12703989;23;20014;-77
